Lyle, Minnesota
Current Conditions -  °F | °C
As of 3:16 AM on Wednesday 28 Jan 2015 (Local Time) from KAUM Reporting Station
Haze Haze  
Wind Chill: 17°   Ceiling: 400
Heat Index: 27°   Visibility: 4mi
Dew Point: 27°   Wind: 10mph
Humidity: 100%   Direction: 160°SSE
Pressure: 30.09"   Gusts: 16mph
Location:  43.51°N, 92.94°W
Report Text: KAUM 280916Z AUTO 16009G14KT 4SM BR OVC004 M03/M03 A3009 RMK AO2
Loading
Personal Weather Stations






























Interactive Weather Map New forecast layout! Learn more

10-Day Weather Forecast

Advertisements
Track Severe Weather on mobile